createdAt,value
2022-08-06T00:00:06.449Z,13.84
2022-08-06T00:02:37.693Z,13.82
2022-08-06T00:05:06.814Z,13.80
2022-08-06T00:07:47.501Z,13.78
2022-08-06T00:10:16.697Z,13.74
2022-08-06T00:12:46.102Z,13.72
2022-08-06T00:15:19.999Z,13.70
2022-08-06T00:18:07.258Z,13.67
2022-08-06T00:20:41.954Z,13.63
2022-08-06T00:23:17.237Z,13.58
2022-08-06T00:25:52.859Z,13.53
2022-08-06T00:28:21.553Z,13.50
2022-08-06T00:30:59.183Z,13.45
2022-08-06T00:33:49.936Z,13.39
2022-08-06T00:36:17.237Z,13.34
2022-08-06T00:38:47.071Z,13.28
2022-08-06T00:41:17.233Z,13.25
2022-08-06T00:43:45.563Z,13.23
2022-08-06T00:46:16.368Z,13.18
2022-08-06T00:48:53.074Z,13.19
2022-08-06T00:51:23.312Z,13.18
2022-08-06T00:53:54.943Z,13.17
2022-08-06T00:56:29.363Z,13.12
2022-08-06T00:59:03.088Z,13.07
2022-08-06T01:01:33.038Z,13.04
2022-08-06T01:04:20.011Z,13.02
2022-08-06T01:06:56.864Z,13.01
2022-08-06T01:09:31.636Z,12.98
2022-08-06T01:12:00.536Z,12.97
2022-08-06T01:14:38.843Z,12.97
2022-08-06T01:17:19.101Z,12.96
2022-08-06T01:21:58.482Z,12.96
2022-08-06T01:22:53.513Z,12.94
2022-08-06T01:25:47.129Z,12.94
2022-08-06T01:28:22.991Z,12.95
2022-08-06T01:31:02.347Z,12.92
2022-08-06T01:33:38.837Z,12.89
2022-08-06T01:36:10.064Z,12.85
2022-08-06T01:38:43.539Z,12.81
2022-08-06T01:41:56.681Z,12.77
2022-08-06T01:44:28.745Z,12.71
2022-08-06T01:46:59.584Z,12.67
2022-08-06T01:50:01.484Z,12.64
2022-08-06T01:52:29.876Z,12.62
2022-08-06T01:55:00.788Z,12.57
2022-08-06T01:57:32.711Z,12.53
2022-08-06T02:00:29.356Z,12.49
2022-08-06T02:03:01.039Z,12.47
2022-08-06T02:05:32.236Z,12.43
2022-08-06T02:08:37.063Z,12.39
2022-08-06T02:10:57.125Z,12.35
2022-08-06T02:13:25.749Z,12.33
2022-08-06T02:16:05.735Z,12.32
2022-08-06T02:18:36.963Z,12.27
2022-08-06T02:21:19.214Z,12.25
2022-08-06T02:23:56.718Z,12.23
2022-08-06T02:26:27.045Z,12.20
2022-08-06T02:29:01.164Z,12.18
2022-08-06T02:31:30.808Z,12.19
2022-08-06T02:34:15.945Z,12.16
2022-08-06T02:36:50.474Z,12.16
2022-08-06T02:39:29.895Z,12.15
2022-08-06T02:42:14.906Z,12.12
2022-08-06T02:44:47.258Z,12.14
2022-08-06T02:47:23.537Z,12.11
2022-08-06T02:50:14.372Z,12.09
2022-08-06T02:52:56.592Z,12.10
2022-08-06T02:55:29.399Z,12.08
2022-08-06T02:58:06.543Z,12.08
2022-08-06T03:00:38.475Z,12.08
2022-08-06T03:03:16.084Z,12.08
2022-08-06T03:05:55.960Z,12.09
2022-08-06T03:08:27.197Z,12.08
2022-08-06T03:10:56.389Z,12.05
2022-08-06T03:13:29.341Z,12.02
2022-08-06T03:16:04.374Z,12.00
2022-08-06T03:18:34.674Z,11.95
2022-08-06T03:21:03.458Z,11.92
2022-08-06T03:23:36.842Z,11.90
2022-08-06T03:26:08.412Z,11.86
2022-08-06T03:28:36.620Z,11.84
2022-08-06T03:31:05.486Z,11.81
2022-08-06T03:33:53.737Z,11.80
2022-08-06T03:36:23.235Z,11.77
2022-08-06T03:38:58.426Z,11.74
2022-08-06T03:41:29.146Z,11.71
2022-08-06T03:44:04.576Z,11.67
2022-08-06T03:46:36.547Z,11.65
2022-08-06T03:49:07.522Z,11.64
2022-08-06T03:51:52.620Z,11.63
2022-08-06T03:54:30.493Z,11.61
2022-08-06T03:57:07.738Z,11.61
2022-08-06T03:59:43.554Z,11.60
2022-08-06T04:02:37.044Z,11.58
2022-08-06T04:05:16.956Z,11.57
2022-08-06T04:07:55.132Z,11.57
2022-08-06T04:10:33.808Z,11.57
2022-08-06T04:13:08.634Z,11.55
2022-08-06T04:15:56.191Z,11.54
2022-08-06T04:18:26.577Z,11.54
2022-08-06T04:20:59.575Z,11.52
2022-08-06T04:23:45.500Z,11.48
2022-08-06T04:26:15.480Z,11.47
2022-08-06T04:28:57.300Z,11.48
2022-08-06T04:32:11.159Z,11.50
2022-08-06T04:34:15.973Z,11.48
2022-08-06T04:36:46.329Z,11.47
2022-08-06T04:39:20.988Z,11.48
2022-08-06T04:41:56.906Z,11.47
2022-08-06T04:44:30.081Z,11.47
2022-08-06T04:46:58.638Z,11.47
2022-08-06T04:49:58.165Z,11.51
2022-08-06T04:52:46.970Z,11.54
2022-08-06T04:55:25.121Z,11.56
2022-08-06T04:58:03.618Z,11.58
2022-08-06T05:01:00.252Z,11.62
2022-08-06T05:04:06.620Z,11.69
2022-08-06T05:06:18.269Z,11.72
2022-08-06T05:08:52.242Z,11.77
2022-08-06T05:11:25.031Z,11.83
2022-08-06T05:13:56.503Z,11.90
2022-08-06T05:16:28.093Z,11.94
2022-08-06T05:19:20.796Z,11.99
2022-08-06T05:22:11.205Z,12.06
2022-08-06T05:24:38.916Z,12.14
2022-08-06T05:27:08.213Z,12.25
2022-08-06T05:29:36.541Z,12.33
2022-08-06T05:32:06.683Z,12.42
2022-08-06T05:34:38.334Z,12.53
2022-08-06T05:37:06.287Z,12.63
2022-08-06T05:39:57.939Z,12.71
2022-08-06T05:42:27.686Z,12.78
2022-08-06T05:44:55.733Z,12.81
2022-08-06T05:47:25.626Z,12.87
2022-08-06T05:50:18.531Z,12.93
2022-08-06T05:52:57.436Z,12.94
2022-08-06T05:55:29.908Z,13.00
2022-08-06T05:58:09.078Z,13.09
2022-08-06T06:00:44.005Z,13.23
2022-08-06T06:03:24.513Z,13.36
2022-08-06T06:06:05.844Z,13.50
2022-08-06T06:08:55.605Z,13.60
2022-08-06T06:11:46.924Z,13.67
2022-08-06T06:14:32.305Z,13.68
2022-08-06T06:17:09.502Z,13.66
2022-08-06T06:19:51.963Z,13.62
2022-08-06T06:22:27.810Z,13.58
2022-08-06T06:24:59.984Z,13.59
2022-08-06T06:27:42.829Z,13.59
2022-08-06T06:30:19.867Z,13.56
2022-08-06T06:33:05.933Z,13.52
2022-08-06T06:35:49.450Z,13.54
2022-08-06T06:38:27.799Z,13.53
2022-08-06T06:41:06.689Z,13.50
2022-08-06T06:43:53.844Z,13.52
2022-08-06T06:46:36.994Z,13.52
2022-08-06T06:49:53.204Z,13.58
2022-08-06T06:52:10.523Z,13.64
2022-08-06T06:54:42.208Z,13.73
2022-08-06T06:57:17.959Z,13.79
2022-08-06T07:00:04.644Z,13.91
2022-08-06T07:02:42.157Z,13.99
2022-08-06T07:05:13.387Z,14.07
2022-08-06T07:07:49.945Z,14.20
2022-08-06T07:10:20.261Z,14.31
2022-08-06T07:12:50.830Z,14.40
2022-08-06T07:15:21.858Z,14.46
2022-08-06T07:17:59.621Z,14.52
2022-08-06T07:20:41.675Z,14.65
2022-08-06T07:24:08.364Z,14.73
2022-08-06T07:26:01.329Z,14.90
2022-08-06T07:28:31.213Z,15.02
2022-08-06T07:31:07.187Z,15.14
2022-08-06T07:34:00.521Z,15.24
2022-08-06T07:36:29.718Z,15.41
2022-08-06T07:39:01.891Z,15.53
2022-08-06T07:42:06.899Z,15.63
2022-08-06T07:44:22.529Z,15.74
2022-08-06T07:47:01.261Z,15.78
2022-08-06T07:49:59.758Z,15.83
2022-08-06T07:52:29.749Z,15.90
2022-08-06T07:55:03.277Z,15.96
2022-08-06T07:57:39.722Z,16.09
2022-08-06T08:00:19.932Z,16.18
2022-08-06T08:03:09.784Z,16.27
2022-08-06T08:06:00.644Z,16.35
2022-08-06T08:08:30.749Z,16.42
2022-08-06T08:10:59.162Z,16.46
2022-08-06T08:13:41.024Z,16.58
2022-08-06T08:16:12.521Z,16.58
2022-08-06T08:18:52.060Z,16.65
2022-08-06T08:21:21.775Z,16.74
2022-08-06T08:23:55.429Z,16.84
2022-08-06T08:26:25.520Z,17.01
2022-08-06T08:28:54.809Z,17.21
2022-08-06T08:31:26.371Z,18.61
2022-08-06T08:33:56.282Z,20.22
2022-08-06T08:36:30.576Z,21.29
2022-08-06T08:39:04.258Z,22.61
2022-08-06T08:41:48.745Z,23.75
2022-08-06T08:44:26.448Z,24.80
2022-08-06T08:46:58.908Z,25.71
2022-08-06T08:49:30.622Z,26.48
2022-08-06T08:52:00.696Z,26.98
2022-08-06T08:54:31.633Z,27.10
2022-08-06T08:57:11.429Z,27.44
2022-08-06T08:59:59.739Z,27.73
2022-08-06T09:02:30.710Z,27.54
2022-08-06T09:05:01.092Z,27.43
2022-08-06T09:07:36.088Z,27.49
2022-08-06T09:10:06.645Z,27.54
2022-08-06T09:12:44.490Z,27.39
2022-08-06T09:15:14.582Z,26.62
2022-08-06T09:18:12.149Z,25.35
2022-08-06T09:20:35.631Z,24.49
2022-08-06T09:23:07.253Z,23.72
2022-08-06T09:25:49.394Z,23.21
2022-08-06T09:28:32.147Z,22.69
2022-08-06T09:31:00.964Z,22.43
2022-08-06T09:34:28.761Z,22.18
2022-08-06T09:36:29.932Z,21.89
2022-08-06T09:39:00.500Z,21.72
2022-08-06T09:41:30.340Z,21.56
2022-08-06T09:44:05.204Z,21.50
2022-08-06T09:46:38.157Z,21.47
2022-08-06T09:49:45.523Z,21.61
2022-08-06T09:52:11.817Z,21.58
2022-08-06T09:54:42.786Z,21.69
2022-08-06T09:57:10.987Z,21.66
2022-08-06T09:59:50.301Z,21.55
2022-08-06T10:02:24.083Z,21.77
2022-08-06T10:05:19.215Z,21.91
2022-08-06T10:07:52.942Z,21.94
2022-08-06T10:10:34.276Z,22.06
2022-08-06T10:13:19.495Z,22.18
2022-08-06T10:16:01.791Z,22.20
2022-08-06T10:18:55.295Z,22.09
2022-08-06T10:21:26.972Z,22.29
2022-08-06T10:24:00.844Z,22.44
2022-08-06T10:26:30.971Z,22.70
2022-08-06T10:29:05.903Z,22.98
2022-08-06T10:31:36.743Z,23.04
2022-08-06T10:34:17.144Z,23.08
2022-08-06T10:36:48.938Z,23.11
2022-08-06T10:40:07.464Z,23.12
2022-08-06T10:42:19.964Z,23.09
2022-08-06T10:44:51.109Z,23.09
2022-08-06T10:48:58.494Z,23.28
2022-08-06T10:50:25.748Z,23.51
2022-08-06T10:52:59.981Z,23.79
2022-08-06T10:55:34.271Z,23.97
2022-08-06T10:58:11.136Z,24.21
2022-08-06T11:00:44.877Z,24.54
2022-08-06T11:03:24.737Z,24.99
2022-08-06T11:05:58.537Z,25.45
2022-08-06T11:08:43.220Z,25.66
2022-08-06T11:11:26.427Z,25.51
2022-08-06T11:14:03.645Z,25.27
2022-08-06T11:16:34.518Z,25.58
2022-08-06T11:19:07.079Z,25.94
2022-08-06T11:22:02.674Z,26.23
2022-08-06T11:24:28.021Z,26.26
2022-08-06T11:27:02.075Z,26.40
2022-08-06T11:30:09.326Z,26.98
2022-08-06T11:32:48.089Z,26.68
2022-08-06T11:35:33.824Z,26.46
2022-08-06T11:38:25.083Z,26.15
2022-08-06T11:41:05.851Z,26.43
2022-08-06T11:44:07.999Z,26.27
2022-08-06T11:46:39.571Z,26.29
2022-08-06T11:49:21.956Z,26.81
2022-08-06T11:51:59.432Z,26.83
2022-08-06T11:54:38.447Z,26.74
2022-08-06T11:57:41.273Z,27.51
2022-08-06T12:00:20.243Z,27.47
2022-08-06T12:02:58.451Z,27.19
2022-08-06T12:05:57.225Z,26.79
2022-08-06T12:08:42.709Z,26.47
2022-08-06T12:11:25.119Z,26.22
2022-08-06T12:14:32.182Z,25.99
2022-08-06T12:16:53.670Z,25.62
2022-08-06T12:19:24.457Z,25.34
2022-08-06T12:21:57.157Z,25.11
2022-08-06T12:24:51.832Z,25.14
2022-08-06T19:20:20.134Z,21.42
2022-08-06T19:22:45.554Z,21.20
2022-08-06T19:25:28.767Z,21.09
2022-08-06T19:28:49.121Z,21.04
2022-08-06T19:31:43.184Z,21.02
2022-08-06T19:34:16.720Z,20.97
2022-08-06T19:38:00.079Z,20.91
2022-08-06T19:44:27.935Z,20.74
2022-08-06T20:35:20.507Z,19.28
2022-08-06T20:44:39.485Z,18.85
2022-08-06T21:25:02.457Z,18.19
2022-08-06T21:31:57.090Z,17.96
2022-08-06T21:35:43.063Z,17.91
2022-08-06T21:40:29.110Z,17.86
